createdAt,value
2019-05-01T00:02:09.055Z,99.50
2019-05-01T00:04:47.460Z,99.70
2019-05-01T00:07:24.859Z,99.60
2019-05-01T00:09:55.437Z,99.90
2019-05-01T00:12:26.191Z,99.90
2019-05-01T00:15:00.386Z,99.90
2019-05-01T00:17:32.164Z,99.90
2019-05-01T00:20:02.702Z,99.90
2019-05-01T00:22:34.439Z,99.90
2019-05-01T00:25:05.153Z,99.90
2019-05-01T00:27:35.687Z,99.90
2019-05-01T00:30:08.720Z,99.90
2019-05-01T00:32:39.161Z,99.90
2019-05-01T00:35:09.831Z,99.90
2019-05-01T00:37:41.395Z,99.90
2019-05-01T00:40:12.438Z,99.90
2019-05-01T00:42:43.095Z,99.90
2019-05-01T00:45:14.747Z,99.90
2019-05-01T00:47:45.367Z,99.90
2019-05-01T00:50:16.023Z,99.90
2019-05-01T00:52:46.599Z,99.90
2019-05-01T00:55:36.847Z,99.90
2019-05-01T00:58:26.499Z,99.90
2019-05-01T01:01:08.568Z,99.90
2019-05-01T01:03:40.079Z,99.90
2019-05-01T01:06:10.717Z,99.90
2019-05-01T01:08:41.338Z,99.90
2019-05-01T01:11:11.761Z,99.90
2019-05-01T01:13:42.386Z,99.90
2019-05-01T01:16:13.001Z,99.90
2019-05-01T01:18:43.555Z,99.90
2019-05-01T01:21:13.982Z,99.90
2019-05-01T01:23:45.131Z,99.90
2019-05-01T01:26:15.749Z,99.90
2019-05-01T01:28:47.651Z,99.90
2019-05-01T01:31:18.241Z,99.90
2019-05-01T01:33:48.794Z,99.90
2019-05-01T01:36:19.403Z,99.90
2019-05-01T01:38:50.239Z,99.90
2019-05-01T01:41:21.288Z,99.90
2019-05-01T01:44:08.596Z,99.90
2019-05-01T01:46:39.859Z,99.90
2019-05-01T01:49:10.487Z,99.90
2019-05-01T01:51:41.008Z,99.90
2019-05-01T01:54:11.718Z,99.90
2019-05-01T01:56:42.477Z,99.90
2019-05-01T01:59:13.729Z,99.90
2019-05-01T02:01:59.768Z,99.90
2019-05-01T02:04:44.145Z,99.90
2019-05-01T02:07:14.698Z,99.90
2019-05-01T02:09:45.237Z,99.90
2019-05-01T02:12:16.093Z,99.90
2019-05-01T02:14:46.732Z,99.90
2019-05-01T02:17:18.382Z,99.90
2019-05-01T02:20:00.899Z,99.90
2019-05-01T02:22:31.636Z,99.90
2019-05-01T02:25:02.530Z,99.90
2019-05-01T02:27:41.156Z,99.90
2019-05-01T02:30:13.882Z,99.90
2019-05-01T02:32:46.441Z,99.90
2019-05-01T02:35:17.169Z,99.90
2019-05-01T02:37:48.874Z,99.90
2019-05-01T02:40:43.450Z,99.90
2019-05-01T02:43:17.022Z,99.90
2019-05-01T02:45:52.863Z,99.90
2019-05-01T02:48:25.078Z,99.90
2019-05-01T02:51:00.318Z,99.90
2019-05-01T02:53:34.266Z,99.90
2019-05-01T02:56:24.597Z,99.90
2019-05-01T02:58:57.341Z,99.90
2019-05-01T03:01:44.729Z,99.90
2019-05-01T03:04:01.828Z,99.90
2019-05-01T03:06:34.867Z,99.90
2019-05-01T03:09:08.690Z,99.90
2019-05-01T03:11:41.103Z,99.90
2019-05-01T03:14:17.159Z,99.90
2019-05-01T03:16:49.583Z,99.90
2019-05-01T03:19:40.683Z,99.90
2019-05-01T03:22:30.849Z,99.90
2019-05-01T03:25:01.790Z,99.90
2019-05-01T03:27:32.526Z,99.90
2019-05-01T03:30:15.208Z,99.90
2019-05-01T03:32:45.805Z,99.90
2019-05-01T03:35:16.481Z,99.90
2019-05-01T03:37:47.113Z,99.90
2019-05-01T03:40:17.688Z,99.90
2019-05-01T03:42:48.539Z,99.90
2019-05-01T03:45:19.560Z,99.90
2019-05-01T03:47:50.705Z,99.90
2019-05-01T03:50:21.440Z,99.90
2019-05-01T03:52:52.149Z,99.90
2019-05-01T03:55:22.784Z,99.90
2019-05-01T03:57:53.470Z,99.90
2019-05-01T04:00:43.214Z,99.90
2019-05-01T04:03:21.237Z,99.90
2019-05-01T04:05:52.257Z,99.90
2019-05-01T04:08:22.991Z,99.90
2019-05-01T04:10:54.745Z,99.60
2019-05-01T04:13:26.574Z,99.90
2019-05-01T04:15:57.459Z,99.60
2019-05-01T04:18:28.738Z,99.70
2019-05-01T04:20:59.527Z,99.60
2019-05-01T04:23:30.786Z,99.20
2019-05-01T04:26:02.121Z,99.00
2019-05-01T04:28:40.853Z,98.80
2019-05-01T04:31:30.649Z,98.40
2019-05-01T04:34:05.351Z,98.50
2019-05-01T04:36:40.413Z,98.90
2019-05-01T04:39:11.026Z,98.50
2019-05-01T04:41:41.868Z,98.30
2019-05-01T04:44:12.702Z,98.70
2019-05-01T04:46:43.549Z,98.50
2019-05-01T04:49:14.348Z,98.40
2019-05-01T04:51:46.144Z,98.80
2019-05-01T04:54:16.843Z,98.90
2019-05-01T04:56:48.264Z,98.70
2019-05-01T04:59:19.444Z,99.00
2019-05-01T05:01:57.212Z,99.40
2019-05-01T05:04:29.535Z,99.20
2019-05-01T05:07:00.923Z,98.90
2019-05-01T05:09:42.230Z,99.30
2019-05-01T05:12:19.080Z,98.40
2019-05-01T05:14:54.826Z,98.30
2019-05-01T05:17:26.288Z,98.30
2019-05-01T05:19:57.287Z,98.10
2019-05-01T05:22:27.794Z,97.70
2019-05-01T05:24:59.003Z,97.30
2019-05-01T05:27:30.248Z,96.70
2019-05-01T05:30:01.344Z,96.90
2019-05-01T05:32:35.202Z,96.90
2019-05-01T05:35:06.906Z,96.80
2019-05-01T05:37:45.305Z,96.80
2019-05-01T05:40:18.715Z,96.90
2019-05-01T05:42:49.470Z,96.80
2019-05-01T05:45:20.232Z,96.40
2019-05-01T05:47:50.818Z,96.50
2019-05-01T05:50:23.203Z,96.30
2019-05-01T05:52:59.446Z,95.80
2019-05-01T05:55:52.520Z,95.80
2019-05-01T05:58:43.549Z,95.70
2019-05-01T06:01:35.127Z,94.50
2019-05-01T06:04:21.209Z,94.10
2019-05-01T06:07:03.402Z,93.60
2019-05-01T06:09:44.727Z,93.70
2019-05-01T06:12:37.216Z,94.00
2019-05-01T06:15:27.264Z,94.10
2019-05-01T06:18:06.179Z,93.40
2019-05-01T06:20:46.489Z,93.30
2019-05-01T06:23:25.551Z,93.40
2019-05-01T06:26:02.282Z,93.30
2019-05-01T06:28:32.235Z,93.20
2019-05-01T06:31:23.232Z,93.90
2019-05-01T06:33:55.294Z,93.80
2019-05-01T06:36:26.147Z,93.60
2019-05-01T06:38:57.858Z,93.10
2019-05-01T06:41:33.828Z,93.30
2019-05-01T06:44:08.533Z,93.10
2019-05-01T06:46:51.680Z,93.40
2019-05-01T06:49:43.487Z,91.90
2019-05-01T06:52:18.753Z,91.70
2019-05-01T06:54:52.138Z,91.90
2019-05-01T06:57:23.739Z,91.80
2019-05-01T06:59:55.243Z,90.50
2019-05-01T07:02:29.922Z,91.20
2019-05-01T07:05:01.601Z,91.30
2019-05-01T07:07:33.339Z,91.00
2019-05-01T07:10:05.293Z,90.60
2019-05-01T07:12:37.173Z,90.90
2019-05-01T07:15:08.369Z,90.40
2019-05-01T07:17:39.329Z,89.70
2019-05-01T07:20:25.472Z,87.90
2019-05-01T07:22:55.788Z,88.50
2019-05-01T07:25:26.426Z,88.70
2019-05-01T07:27:58.480Z,86.20
2019-05-01T07:30:49.813Z,87.20
2019-05-01T07:33:21.335Z,89.00
2019-05-01T07:35:54.028Z,87.50
2019-05-01T07:38:24.912Z,88.00
2019-05-01T07:40:58.843Z,85.80
2019-05-01T07:43:37.506Z,86.10
2019-05-01T07:46:18.455Z,85.70
2019-05-01T07:48:46.963Z,84.70
2019-05-01T07:51:18.105Z,86.10
2019-05-01T07:53:49.003Z,84.90
2019-05-01T07:56:22.939Z,85.10
2019-05-01T07:58:53.423Z,85.00
2019-05-01T08:01:43.244Z,85.10
2019-05-01T08:04:18.085Z,85.90
2019-05-01T08:06:46.549Z,85.10
2019-05-01T08:09:17.199Z,82.10
2019-05-01T08:11:47.923Z,83.00
2019-05-01T08:14:18.722Z,81.80
2019-05-01T08:16:49.664Z,82.30
2019-05-01T08:19:40.721Z,81.20
2019-05-01T08:22:21.292Z,78.40
2019-05-01T08:24:53.838Z,76.30
2019-05-01T08:27:43.614Z,77.60
2019-05-01T08:30:28.783Z,77.80
2019-05-01T08:33:14.168Z,78.20
2019-05-01T08:35:42.074Z,76.80
2019-05-01T08:38:12.852Z,76.10
2019-05-01T08:40:45.143Z,77.20
2019-05-01T08:43:18.127Z,78.00
2019-05-01T08:46:07.218Z,74.80
2019-05-01T08:48:45.252Z,72.50
2019-05-01T08:51:17.083Z,72.00
2019-05-01T08:53:47.843Z,70.20
2019-05-01T08:56:22.020Z,70.50
2019-05-01T08:58:52.683Z,66.80
2019-05-01T09:01:23.452Z,67.30
2019-05-01T09:03:54.570Z,67.50
2019-05-01T09:06:34.532Z,68.30
2019-05-01T09:09:02.969Z,62.80
2019-05-01T09:11:36.328Z,64.00
2019-05-01T09:14:05.618Z,62.70
2019-05-01T09:16:36.786Z,63.00
2019-05-01T09:19:07.998Z,62.50
2019-05-01T09:21:39.511Z,59.70
2019-05-01T09:24:11.089Z,59.40
2019-05-01T09:26:51.569Z,60.00
2019-05-01T09:29:27.705Z,55.80
2019-05-01T09:31:58.519Z,56.10
2019-05-01T09:34:29.713Z,54.00
2019-05-01T09:37:00.468Z,54.00
2019-05-01T09:39:32.304Z,53.80
2019-05-01T09:42:03.117Z,54.40
2019-05-01T09:44:34.083Z,55.20
2019-05-01T09:47:06.048Z,55.00
2019-05-01T09:49:37.624Z,54.40
2019-05-01T09:52:24.915Z,55.30
2019-05-01T09:55:17.853Z,55.90
2019-05-01T09:57:47.287Z,55.30
2019-05-01T10:00:25.981Z,54.70
2019-05-01T10:03:00.707Z,52.40
2019-05-01T10:05:33.199Z,53.10
2019-05-01T10:08:05.428Z,53.60
2019-05-01T10:10:37.077Z,53.20
2019-05-01T10:13:07.593Z,53.60
2019-05-01T10:15:38.100Z,50.80
2019-05-01T10:18:08.925Z,51.70
2019-05-01T10:20:39.613Z,53.80
2019-05-01T10:23:13.068Z,50.90
2019-05-01T10:25:47.890Z,50.90
2019-05-01T10:28:28.631Z,51.90
2019-05-01T10:31:11.689Z,52.40
2019-05-01T10:33:41.984Z,52.20
2019-05-01T10:36:31.545Z,52.00
2019-05-01T10:39:02.408Z,52.40
2019-05-01T10:41:34.779Z,48.60
2019-05-01T10:44:05.562Z,49.00
2019-05-01T10:46:36.319Z,49.50
2019-05-01T10:49:07.142Z,48.90
2019-05-01T10:51:37.710Z,49.70
2019-05-01T10:54:08.420Z,48.60
2019-05-01T10:56:39.102Z,49.80
2019-05-01T10:59:10.118Z,48.30
2019-05-01T11:01:48.432Z,48.80
2019-05-01T11:04:19.161Z,47.80
2019-05-01T11:06:49.996Z,47.40
2019-05-01T11:09:21.456Z,47.30
2019-05-01T11:11:52.236Z,44.40
2019-05-01T11:14:22.776Z,46.10
2019-05-01T11:16:53.460Z,47.20
2019-05-01T11:19:25.120Z,48.30
2019-05-01T11:21:55.762Z,44.40
2019-05-01T11:24:26.504Z,45.60
2019-05-01T11:26:57.189Z,44.90
2019-05-01T11:29:27.937Z,45.40
2019-05-01T11:32:17.390Z,43.90
2019-05-01T11:35:07.200Z,44.20
2019-05-01T11:37:46.175Z,44.20
2019-05-01T11:40:23.553Z,44.70
2019-05-01T11:42:56.848Z,43.80
2019-05-01T11:45:27.456Z,42.50
2019-05-01T11:47:57.942Z,40.90
2019-05-01T11:54:15.891Z,43.50
2019-05-01T11:56:46.680Z,43.20
2019-05-01T11:59:17.500Z,40.70
2019-05-01T12:01:48.019Z,40.70
2019-05-01T12:04:18.472Z,39.10
2019-05-01T12:06:49.267Z,41.50
2019-05-01T12:09:19.994Z,40.30
2019-05-01T12:11:52.892Z,41.50
2019-05-01T12:14:23.427Z,38.40
2019-05-01T12:17:13.004Z,38.00
2019-05-01T12:19:43.685Z,39.00
2019-05-01T12:22:14.650Z,37.80
2019-05-01T12:24:45.416Z,37.90
2019-05-01T12:27:16.230Z,36.60
2019-05-01T12:29:47.220Z,34.60
2019-05-01T12:32:18.188Z,34.70
2019-05-01T12:34:49.060Z,32.10
2019-05-01T12:37:39.136Z,32.60
2019-05-01T12:40:11.845Z,29.90
2019-05-01T12:42:42.934Z,30.20
2019-05-01T12:45:14.765Z,30.30
2019-05-01T12:48:04.772Z,31.70
2019-05-01T12:50:35.650Z,31.90
2019-05-01T12:53:12.865Z,29.80
2019-05-01T12:56:02.730Z,30.90
2019-05-01T12:58:35.836Z,30.00
2019-05-01T13:01:06.750Z,30.00
2019-05-01T13:03:37.686Z,30.40
2019-05-01T13:06:08.218Z,32.40
2019-05-01T13:08:38.745Z,33.50
2019-05-01T13:11:09.272Z,34.40
2019-05-01T13:13:39.959Z,35.00
2019-05-01T13:16:10.709Z,32.80
2019-05-01T13:18:41.271Z,32.40
2019-05-01T13:21:11.872Z,31.40
2019-05-01T13:23:42.373Z,30.80
2019-05-01T13:26:25.950Z,29.90
2019-05-01T13:29:04.377Z,29.90
2019-05-01T13:31:40.472Z,30.70
2019-05-01T13:34:11.214Z,30.90
2019-05-01T13:36:41.866Z,31.20
2019-05-01T13:39:13.078Z,30.00
2019-05-01T13:41:43.895Z,30.10
2019-05-01T13:44:14.758Z,30.60
2019-05-01T13:46:45.673Z,31.20
2019-05-01T13:49:16.481Z,30.00
2019-05-01T13:51:47.107Z,30.80
2019-05-01T13:54:17.848Z,30.30
2019-05-01T13:56:48.354Z,30.60
2019-05-01T13:59:19.419Z,33.30
2019-05-01T14:01:50.114Z,33.20
2019-05-01T14:04:21.734Z,34.40
2019-05-01T14:06:53.290Z,34.80
2019-05-01T14:09:28.760Z,34.10
2019-05-01T14:11:59.462Z,34.20
2019-05-01T14:14:30.363Z,33.90
2019-05-01T14:17:01.079Z,33.90
2019-05-01T14:19:32.675Z,33.80
2019-05-01T14:22:22.604Z,34.60
2019-05-01T14:24:56.466Z,33.50
2019-05-01T14:27:27.065Z,32.10
2019-05-01T14:29:57.932Z,33.10
2019-05-01T14:32:28.707Z,32.00
2019-05-01T14:34:59.424Z,31.40
2019-05-01T14:37:30.253Z,31.00
2019-05-01T14:43:40.067Z,31.00
2019-05-01T14:46:05.547Z,29.90
2019-05-01T14:48:37.582Z,30.10
2019-05-01T14:51:08.426Z,29.10
2019-05-01T14:53:40.277Z,29.20
2019-05-01T14:56:11.013Z,29.20
2019-05-01T14:58:42.080Z,29.60
2019-05-01T15:01:12.873Z,28.30
2019-05-01T15:03:43.852Z,29.00
2019-05-01T15:06:27.290Z,27.90
2019-05-01T15:08:58.386Z,28.50
2019-05-01T15:11:29.470Z,28.50
2019-05-01T15:14:19.443Z,29.50
2019-05-01T15:16:55.389Z,29.60
2019-05-01T15:19:28.350Z,30.20
2019-05-01T15:21:59.138Z,30.40
2019-05-01T15:24:29.790Z,31.10
2019-05-01T15:27:00.298Z,31.40
2019-05-01T15:29:31.121Z,31.80
2019-05-01T15:32:01.790Z,31.30
2019-05-01T15:34:32.612Z,30.30
2019-05-01T15:37:03.301Z,30.50
2019-05-01T15:46:14.658Z,32.00
2019-05-01T15:48:45.404Z,31.70
2019-05-01T15:54:08.569Z,31.90
2019-05-01T15:56:39.342Z,32.20
2019-05-01T15:59:10.196Z,32.30
2019-05-01T16:01:41.071Z,32.30
2019-05-01T16:04:11.983Z,31.60
2019-05-01T16:06:42.505Z,32.50
2019-05-01T16:09:14.148Z,31.70
2019-05-01T16:12:03.828Z,32.10
2019-05-01T16:14:34.593Z,33.10
2019-05-01T16:17:05.406Z,34.30
2019-05-01T16:23:13.959Z,34.40
2019-05-01T16:25:44.704Z,34.40
2019-05-01T16:28:15.938Z,34.20
2019-05-01T16:30:46.810Z,34.20
2019-05-01T16:33:18.630Z,34.50
2019-05-01T16:39:51.795Z,34.40
2019-05-01T16:42:32.152Z,35.20
2019-05-01T16:45:03.523Z,34.40
2019-05-01T16:47:34.266Z,34.40
2019-05-01T16:50:08.023Z,34.80
2019-05-01T16:52:41.148Z,34.40
2019-05-01T16:55:12.754Z,33.50
2019-05-01T16:57:43.588Z,33.30
2019-05-01T17:00:15.404Z,33.50
2019-05-01T17:03:05.108Z,33.60
2019-05-01T17:05:54.820Z,33.70
2019-05-01T17:08:38.971Z,34.30
2019-05-01T17:11:14.879Z,35.00
2019-05-01T17:13:45.351Z,35.70
2019-05-01T17:16:16.014Z,35.80
2019-05-01T17:18:46.709Z,35.90
2019-05-01T17:24:44.758Z,37.10
2019-05-01T17:27:25.469Z,37.70
2019-05-01T17:33:20.636Z,38.50
2019-05-01T17:35:50.060Z,39.10
2019-05-01T17:38:20.970Z,39.00
2019-05-01T17:40:53.422Z,39.40
2019-05-01T17:43:24.229Z,39.80
2019-05-01T17:45:55.196Z,40.50
2019-05-01T17:48:28.858Z,40.90
2019-05-01T17:51:01.795Z,41.50
2019-05-01T17:53:32.458Z,41.80
2019-05-01T17:56:03.634Z,42.40
2019-05-01T17:58:34.478Z,42.80
2019-05-01T18:01:19.308Z,43.90
2019-05-01T18:04:28.654Z,43.40
2019-05-01T18:07:03.204Z,44.10
2019-05-01T18:09:33.934Z,44.80
2019-05-01T18:12:05.413Z,44.80
2019-05-01T18:14:37.254Z,45.10
2019-05-01T18:17:09.173Z,45.30
2019-05-01T18:19:41.812Z,45.70
2019-05-01T18:22:36.627Z,46.00
2019-05-01T18:25:28.170Z,46.40
2019-05-01T18:28:19.387Z,46.90
2019-05-01T18:30:51.614Z,47.50
2019-05-01T18:33:25.884Z,48.00
2019-05-01T18:35:55.119Z,48.80
2019-05-01T18:45:50.358Z,50.50
2019-05-01T18:48:22.896Z,50.70
2019-05-01T18:50:54.668Z,51.00
2019-05-01T18:53:26.555Z,51.30
2019-05-01T18:56:01.306Z,51.80
2019-05-01T18:58:30.171Z,52.10
2019-05-01T19:01:04.009Z,52.90
2019-05-01T19:03:37.137Z,53.70
2019-05-01T19:06:40.526Z,54.20
2019-05-01T19:09:14.642Z,54.60
2019-05-01T19:11:43.661Z,55.60
2019-05-01T19:14:23.498Z,56.30
2019-05-01T19:16:56.098Z,57.00
2019-05-01T19:19:27.247Z,57.20
2019-05-01T19:21:58.767Z,58.30
2019-05-01T19:24:32.531Z,59.20
2019-05-01T19:27:05.520Z,59.90
2019-05-01T19:29:38.786Z,60.10
2019-05-01T19:32:10.861Z,60.30
2019-05-01T19:34:42.312Z,60.50
2019-05-01T19:37:16.516Z,61.50
2019-05-01T19:39:48.929Z,61.40
2019-05-01T19:42:22.024Z,61.30
2019-05-01T19:44:56.129Z,61.40
2019-05-01T19:47:27.158Z,61.30
2019-05-01T19:50:06.691Z,61.60
2019-05-01T19:52:32.461Z,62.30
2019-05-01T19:55:07.518Z,62.80
2019-05-01T19:57:40.925Z,64.00
2019-05-01T20:00:13.815Z,64.00
2019-05-01T20:02:47.631Z,64.50
2019-05-01T20:05:21.974Z,65.20
2019-05-01T20:07:56.131Z,66.00
2019-05-01T20:10:24.229Z,66.80
2019-05-01T20:12:56.172Z,67.50
2019-05-01T20:15:27.246Z,68.50
2019-05-01T20:17:58.368Z,69.40
2019-05-01T20:20:32.482Z,70.70
2019-05-01T20:23:03.507Z,71.60
2019-05-01T20:25:34.956Z,72.70
2019-05-01T20:28:06.108Z,73.60
2019-05-01T20:30:37.616Z,75.20
2019-05-01T20:33:08.580Z,76.30
2019-05-01T20:35:39.449Z,76.50
2019-05-01T20:38:10.478Z,78.10
2019-05-01T20:40:42.287Z,79.40
2019-05-01T20:43:14.497Z,80.70
2019-05-01T20:45:49.332Z,81.80
2019-05-01T20:48:23.750Z,82.80
2019-05-01T20:50:52.049Z,85.70
2019-05-01T20:53:22.864Z,88.40
2019-05-01T20:56:00.689Z,91.10
2019-05-01T20:58:31.248Z,92.90
2019-05-01T21:01:10.837Z,94.40
2019-05-01T21:03:44.608Z,95.40
2019-05-01T21:06:22.610Z,96.70
2019-05-01T21:09:01.887Z,97.70
2019-05-01T21:11:42.363Z,98.00
2019-05-01T21:14:18.146Z,98.30
2019-05-01T21:16:45.354Z,99.00
2019-05-01T21:19:16.527Z,99.20
2019-05-01T21:21:47.731Z,99.60
2019-05-01T21:24:44.381Z,99.90
2019-05-01T21:27:16.556Z,99.90
2019-05-01T21:29:48.629Z,99.90
2019-05-01T21:32:26.085Z,99.90
2019-05-01T21:38:16.232Z,99.90
2019-05-01T21:40:46.948Z,99.90
2019-05-01T21:43:17.716Z,99.90
2019-05-01T21:45:48.471Z,99.90
2019-05-01T21:48:19.037Z,99.90
2019-05-01T21:50:51.416Z,99.90
2019-05-01T21:53:23.900Z,99.90
2019-05-01T21:55:55.139Z,99.90
2019-05-01T21:58:29.790Z,99.90
2019-05-01T22:00:59.646Z,99.90
2019-05-01T22:03:30.494Z,99.90
2019-05-01T22:06:01.261Z,99.90
2019-05-01T22:08:34.542Z,99.90
2019-05-01T22:11:04.859Z,99.90
2019-05-01T22:13:35.973Z,99.90
2019-05-01T22:16:18.340Z,99.90
2019-05-01T22:19:05.906Z,99.90
2019-05-01T22:21:49.440Z,99.90
2019-05-01T22:24:33.718Z,99.90
2019-05-01T22:27:08.668Z,99.90
2019-05-01T22:29:45.506Z,99.90
2019-05-01T22:32:27.806Z,99.90
2019-05-01T22:35:17.018Z,99.90
2019-05-01T22:37:47.689Z,99.90
2019-05-01T22:40:21.525Z,99.90
2019-05-01T22:42:52.060Z,99.90
2019-05-01T22:45:24.412Z,99.90
2019-05-01T22:47:54.994Z,99.90
2019-05-01T22:50:25.548Z,99.90
2019-05-01T22:52:56.129Z,99.90
2019-05-01T22:55:27.707Z,99.90
2019-05-01T22:57:58.417Z,99.90
2019-05-01T23:00:48.721Z,99.90
2019-05-01T23:03:25.131Z,99.90
2019-05-01T23:05:55.552Z,99.90
2019-05-01T23:08:26.217Z,99.90
2019-05-01T23:10:56.782Z,99.90
2019-05-01T23:13:28.457Z,99.90
2019-05-01T23:15:59.051Z,99.90
2019-05-01T23:18:29.588Z,99.90
2019-05-01T23:21:01.153Z,99.90
2019-05-01T23:23:31.767Z,99.90
2019-05-01T23:26:02.387Z,99.90
2019-05-01T23:28:35.002Z,99.90
2019-05-01T23:31:05.310Z,99.90
2019-05-01T23:33:35.944Z,99.90
2019-05-01T23:36:07.304Z,99.90
2019-05-01T23:38:37.807Z,99.90
2019-05-01T23:41:08.342Z,99.90
2019-05-01T23:43:38.901Z,99.90
2019-05-01T23:46:09.485Z,99.90
2019-05-01T23:48:40.139Z,99.90
2019-05-01T23:51:10.540Z,99.90
2019-05-01T23:53:44.224Z,99.90
2019-05-01T23:56:13.365Z,99.90
2019-05-01T23:58:43.888Z,99.90
